createdAt,value
2022-09-03T00:00:09.737Z,96028.44
2022-09-03T00:02:43.899Z,96028.44
2022-09-03T00:05:19.668Z,96029.25
2022-09-03T00:07:57.772Z,96016.94
2022-09-03T00:10:32.504Z,96019.41
2022-09-03T00:13:05.980Z,96030.56
2022-09-03T00:15:36.311Z,96016.22
2022-09-03T00:18:09.996Z,96035.06
2022-09-03T00:20:42.986Z,96035.28
2022-09-03T00:23:15.768Z,96040.41
2022-09-03T00:25:48.764Z,96033.44
2022-09-03T00:28:24.398Z,96031.00
2022-09-03T00:31:02.345Z,96027.94
2022-09-03T00:33:33.824Z,96025.06
2022-09-03T00:36:12.340Z,96034.47
2022-09-03T00:38:41.026Z,96039.16
2022-09-03T00:41:18.796Z,96043.06
2022-09-03T00:44:11.276Z,96036.53
2022-09-03T00:46:48.260Z,96050.88
2022-09-03T00:49:37.448Z,96041.84
2022-09-03T00:52:18.020Z,96045.56
2022-09-03T00:55:01.851Z,96037.09
2022-09-03T00:57:44.371Z,96042.38
2022-09-03T01:00:19.621Z,96037.81
2022-09-03T01:03:06.980Z,96038.22
2022-09-03T01:06:07.305Z,96042.94
2022-09-03T01:08:53.381Z,96045.47
2022-09-03T01:11:31.243Z,96053.13
2022-09-03T01:14:10.128Z,96056.84
2022-09-03T01:16:50.311Z,96049.81
2022-09-03T01:19:51.126Z,96047.75
2022-09-03T01:22:41.372Z,96040.56
2022-09-03T01:25:18.323Z,96038.09
2022-09-03T01:28:00.635Z,96039.16
2022-09-03T01:30:33.220Z,96037.94
2022-09-03T01:33:10.971Z,96039.19
2022-09-03T01:35:46.543Z,96033.59
2022-09-03T01:38:27.369Z,96033.16
2022-09-03T01:41:21.450Z,96037.94
2022-09-03T01:44:01.780Z,96037.91
2022-09-03T01:46:39.182Z,96036.72
2022-09-03T01:49:16.968Z,96039.19
2022-09-03T01:51:45.609Z,96049.22
2022-09-03T01:54:56.019Z,96055.78
2022-09-03T01:57:40.414Z,96049.81
2022-09-03T02:00:14.821Z,96047.16
2022-09-03T02:02:48.083Z,96035.84
2022-09-03T02:05:20.529Z,96041.38
2022-09-03T02:07:55.545Z,96025.72
2022-09-03T02:10:33.395Z,96033.88
2022-09-03T02:13:06.486Z,96032.25
2022-09-03T02:15:38.370Z,96028.75
2022-09-03T02:18:12.281Z,96025.22
2022-09-03T02:20:40.979Z,96027.88
2022-09-03T02:23:09.529Z,96032.03
2022-09-03T02:25:42.796Z,96031.00
2022-09-03T02:28:17.748Z,96033.84
2022-09-03T02:30:48.649Z,96036.94
2022-09-03T02:33:17.252Z,96041.53
2022-09-03T02:35:46.456Z,96042.25
2022-09-03T02:38:16.963Z,96037.53
2022-09-03T02:40:45.879Z,96033.22
2022-09-03T02:43:19.680Z,96027.06
2022-09-03T02:45:54.725Z,96024.22
2022-09-03T02:48:25.589Z,96028.09
2022-09-03T02:50:54.132Z,96028.09
2022-09-03T02:53:22.663Z,96023.16
2022-09-03T02:55:51.144Z,96028.50
2022-09-03T02:58:19.598Z,96035.91
2022-09-03T03:00:49.557Z,96015.81
2022-09-03T03:03:18.164Z,96013.53
2022-09-03T03:05:49.455Z,96025.03
2022-09-03T03:08:21.273Z,96023.56
2022-09-03T03:10:52.180Z,96021.91
2022-09-03T03:13:20.941Z,96017.84
2022-09-03T03:15:50.748Z,96021.09
2022-09-03T03:18:20.553Z,96026.88
2022-09-03T03:20:49.245Z,96030.75
2022-09-03T03:23:17.694Z,96033.44
2022-09-03T03:25:46.244Z,96033.44
2022-09-03T03:28:15.260Z,96031.81
2022-09-03T03:30:47.626Z,96038.16
2022-09-03T03:33:17.448Z,96030.59
2022-09-03T03:35:45.965Z,96028.75
2022-09-03T03:38:14.421Z,96032.84
2022-09-03T03:40:42.839Z,96023.63
2022-09-03T03:43:11.486Z,96026.28
2022-09-03T03:45:39.999Z,96024.41
2022-09-03T03:48:08.445Z,96031.78
2022-09-03T03:50:38.691Z,96042.44
2022-09-03T03:53:07.075Z,96043.28
2022-09-03T03:55:36.395Z,96046.16
2022-09-03T03:58:05.045Z,96045.53
2022-09-03T04:00:37.812Z,96037.56
2022-09-03T04:03:06.291Z,96042.28
2022-09-03T04:05:34.711Z,96050.28
2022-09-03T04:08:05.184Z,96052.09
2022-09-03T04:10:33.764Z,96050.88
2022-09-03T04:13:02.232Z,96051.91
2022-09-03T04:15:30.701Z,96055.63
2022-09-03T04:17:59.224Z,96043.94
2022-09-03T04:20:27.656Z,96053.34
2022-09-03T04:22:56.093Z,96058.09
2022-09-03T04:25:26.004Z,96059.91
2022-09-03T04:27:54.787Z,96060.53
2022-09-03T04:30:25.077Z,96057.66
2022-09-03T04:32:54.140Z,96059.28
2022-09-03T04:35:23.231Z,96062.97
2022-09-03T04:37:51.714Z,96054.38
2022-09-03T04:40:20.296Z,96055.19
2022-09-03T04:42:50.307Z,96053.97
2022-09-03T04:45:19.634Z,96051.91
2022-09-03T04:47:57.852Z,96062.38
2022-09-03T04:50:27.974Z,96068.94
2022-09-03T04:52:58.387Z,96060.53
2022-09-03T04:55:26.905Z,96058.09
2022-09-03T04:57:56.893Z,96061.78
2022-09-03T05:00:25.490Z,96059.50
2022-09-03T05:02:54.044Z,96060.94
2022-09-03T05:05:22.487Z,96055.41
2022-09-03T05:07:51.123Z,96065.44
2022-09-03T05:10:21.402Z,96061.97
2022-09-03T05:13:01.066Z,96061.16
2022-09-03T05:15:29.919Z,96059.91
2022-09-03T05:17:59.366Z,96054.78
2022-09-03T05:20:29.892Z,96060.09
2022-09-03T05:22:58.707Z,96060.50
2022-09-03T05:25:27.482Z,96053.34
2022-09-03T05:27:56.343Z,96054.38
2022-09-03T05:30:26.443Z,96057.25
2022-09-03T05:32:55.018Z,96059.06
2022-09-03T05:35:26.046Z,96061.53
2022-09-03T05:37:57.659Z,96060.91
2022-09-03T05:40:26.115Z,96064.59
2022-09-03T05:42:59.688Z,96061.94
2022-09-03T05:45:29.815Z,96071.97
2022-09-03T05:48:01.790Z,96072.38
2022-09-03T05:50:30.371Z,96067.91
2022-09-03T05:53:00.016Z,96060.31
2022-09-03T05:55:29.306Z,96058.50
2022-09-03T05:57:57.773Z,96061.16
2022-09-03T06:00:26.623Z,96069.13
2022-09-03T06:02:56.622Z,96065.44
2022-09-03T06:05:25.133Z,96063.81
2022-09-03T06:07:53.735Z,96073.03
2022-09-03T06:10:25.996Z,96072.44
2022-09-03T06:12:59.143Z,96083.09
2022-09-03T06:15:27.679Z,96080.63
2022-09-03T06:17:57.507Z,96092.13
2022-09-03T06:20:27.896Z,96093.75
2022-09-03T06:22:56.423Z,96105.03
2022-09-03T06:25:25.211Z,96095.78
2022-09-03T06:27:54.082Z,96104.63
2022-09-03T06:30:24.056Z,96101.13
2022-09-03T06:32:52.731Z,96096.22
2022-09-03T06:35:22.643Z,96098.25
2022-09-03T06:37:52.115Z,96110.75
2022-09-03T06:40:22.800Z,96119.41
2022-09-03T06:43:00.907Z,96124.53
2022-09-03T06:45:29.870Z,96141.34
2022-09-03T06:47:58.805Z,96136.81
2022-09-03T06:50:31.378Z,96123.47
2022-09-03T06:53:02.892Z,96130.63
2022-09-03T06:55:31.615Z,96126.25
2022-09-03T06:58:00.105Z,96127.03
2022-09-03T07:00:28.596Z,96139.50
2022-09-03T07:03:00.500Z,96132.47
2022-09-03T07:05:30.571Z,96136.34
2022-09-03T07:07:59.060Z,96142.06
2022-09-03T07:10:28.130Z,96143.69
2022-09-03T07:12:57.029Z,96150.38
2022-09-03T07:15:26.352Z,96148.28
2022-09-03T07:17:55.268Z,96155.44
2022-09-03T07:20:23.703Z,96160.53
2022-09-03T07:22:56.273Z,96152.03
2022-09-03T07:25:26.192Z,96160.03
2022-09-03T07:27:54.607Z,96167.78
2022-09-03T07:30:23.194Z,96161.94
2022-09-03T07:32:52.183Z,96164.56
2022-09-03T07:35:21.719Z,96166.16
2022-09-03T07:37:50.287Z,96162.78
2022-09-03T07:40:20.246Z,96159.84
2022-09-03T07:42:53.244Z,96163.63
2022-09-03T07:45:24.071Z,96172.22
2022-09-03T07:47:52.592Z,96156.66
2022-09-03T07:50:21.100Z,96151.84
2022-09-03T07:52:49.703Z,96163.66
2022-09-03T07:55:20.085Z,96158.25
2022-09-03T07:57:50.555Z,96162.69
2022-09-03T08:00:19.029Z,96158.69
2022-09-03T08:02:47.485Z,96159.41
2022-09-03T08:05:16.243Z,96158.06
2022-09-03T08:07:44.712Z,96165.47
2022-09-03T08:10:13.615Z,96162.88
2022-09-03T08:12:43.513Z,96160.91
2022-09-03T08:15:12.151Z,96156.72
2022-09-03T08:17:44.999Z,96157.06
2022-09-03T08:20:13.461Z,96164.53
2022-09-03T08:22:42.000Z,96164.09
2022-09-03T08:25:11.784Z,96157.59
2022-09-03T08:27:43.941Z,96160.03
2022-09-03T08:30:13.271Z,96156.19
2022-09-03T08:32:41.992Z,96151.31
2022-09-03T08:35:10.887Z,96152.63
2022-09-03T08:37:39.369Z,96159.56
2022-09-03T08:40:32.792Z,96158.41
